Time;durP1;ratioP1;P1;durP2;ratioP2;P2;SDS_P1;SDS_P2;PMS_P1;PMS_P2;Temp;Humidity;BMP_temperature;BMP_pressure;BME280_temperature;BME280_humidity;BME280_pressure;Samples;Min_cycle;Max_cycle;Signal;HPM_P1;HPM_P2
2022/07/27 00:01:14;;;;;;;0.90;0.80;;;24.90;49.20;;;;;;5066696;28;20444;-57
2022/07/27 00:03:40;;;;;;;1.00;1.00;;;24.90;49.00;;;;;;5063686;28;20214;-69
2022/07/27 00:06:07;;;;;;;1.10;0.97;;;24.90;49.00;;;;;;5067405;28;20516;-67
2022/07/27 00:08:33;;;;;;;1.07;1.00;;;24.90;49.00;;;;;;5062860;28;21670;-58
2022/07/27 00:10:59;;;;;;;1.10;1.00;;;24.90;49.00;;;;;;5064336;28;20449;-68
2022/07/27 00:13:26;;;;;;;1.03;0.93;;;24.90;49.00;;;;;;5064334;28;21451;-65
2022/07/27 00:15:52;;;;;;;0.90;0.90;;;24.90;49.00;;;;;;5061687;28;20293;-71
2022/07/27 00:18:18;;;;;;;1.10;1.00;;;24.90;49.00;;;;;;5063441;28;20453;-69
2022/07/27 00:20:43;;;;;;;0.93;0.90;;;24.90;49.00;;;;;;5069980;28;20233;-58
2022/07/27 00:23:09;;;;;;;1.10;1.10;;;24.90;49.00;;;;;;5068989;28;20217;-69
2022/07/27 00:25:35;;;;;;;1.20;1.10;;;24.90;49.00;;;;;;5066503;28;20181;-68
2022/07/27 00:28:01;;;;;;;1.70;1.10;;;24.90;49.00;;;;;;5067952;28;22232;-65
2022/07/27 00:30:29;;;;;;;1.17;1.07;;;24.90;49.00;;;;;;5065243;28;20468;-63
2022/07/27 00:32:57;;;;;;;1.20;1.10;;;24.90;49.00;;;;;;5067440;28;20460;-58
2022/07/27 00:35:22;;;;;;;1.00;1.00;;;24.90;49.10;;;;;;5072064;28;20421;-60
2022/07/27 00:37:49;;;;;;;1.10;1.00;;;24.90;49.10;;;;;;5079871;28;20479;-63
2022/07/27 00:40:15;;;;;;;1.10;1.10;;;24.90;49.00;;;;;;5066804;28;20185;-59
2022/07/27 00:42:40;;;;;;;1.00;1.00;;;24.90;49.00;;;;;;5073018;28;20441;-59
2022/07/27 00:45:08;;;;;;;1.23;1.13;;;24.90;49.00;;;;;;5064802;28;23380;-68
2022/07/27 00:47:36;;;;;;;1.13;1.03;;;24.90;49.00;;;;;;5066981;28;20193;-60
2022/07/27 00:50:03;;;;;;;0.90;0.90;;;24.90;49.00;;;;;;5068823;28;20943;-63
2022/07/27 00:52:30;;;;;;;1.03;1.00;;;24.90;49.00;;;;;;5074852;28;20904;-59
2022/07/27 00:54:56;;;;;;;1.20;1.10;;;24.90;49.00;;;;;;5068654;28;20426;-64
2022/07/27 00:57:23;;;;;;;1.00;1.00;;;24.90;49.00;;;;;;5067375;28;20442;-66
2022/07/27 00:59:49;;;;;;;1.10;0.93;;;24.90;49.00;;;;;;5061865;28;20461;-60
2022/07/27 01:02:15;;;;;;;1.13;1.03;;;24.90;49.00;;;;;;5070966;28;20561;-67
2022/07/27 01:04:41;;;;;;;0.93;0.93;;;24.90;49.00;;;;;;5069466;28;20173;-60
2022/07/27 01:07:07;;;;;;;1.30;1.20;;;24.90;49.00;;;;;;5076376;28;20441;-60
2022/07/27 01:12:20;;;;;;;1.17;1.07;;;24.90;49.00;;;;;;5069744;28;20195;-58
2022/07/27 01:14:47;;;;;;;1.10;1.00;;;24.90;49.00;;;;;;5074221;28;20461;-63
2022/07/27 01:17:13;;;;;;;0.97;0.90;;;24.90;49.00;;;;;;5069157;28;20429;-72
2022/07/27 01:19:42;;;;;;;1.03;1.03;;;24.90;49.00;;;;;;5064051;28;20477;-64
2022/07/27 01:22:07;;;;;;;0.90;0.90;;;24.90;49.00;;;;;;5068075;28;20464;-63
2022/07/27 01:24:34;;;;;;;0.73;0.70;;;24.90;49.00;;;;;;5072826;28;20524;-67
2022/07/27 01:27:02;;;;;;;1.20;1.10;;;24.90;49.70;;;;;;5065885;28;20251;-66
2022/07/27 01:29:29;;;;;;;1.10;1.00;;;24.90;48.90;;;;;;5066102;28;20555;-72
2022/07/27 01:31:55;;;;;;;1.00;1.00;;;24.90;49.00;;;;;;5067033;28;20444;-58
2022/07/27 01:34:21;;;;;;;1.00;1.00;;;24.90;48.90;;;;;;5071159;28;20422;-58
2022/07/27 01:36:47;;;;;;;1.00;1.00;;;24.90;49.00;;;;;;5064864;28;20215;-72
2022/07/27 01:39:14;;;;;;;1.13;1.03;;;24.80;48.90;;;;;;5068599;28;20227;-67
2022/07/27 01:41:41;;;;;;;1.17;1.07;;;24.90;49.00;;;;;;5065666;28;20170;-61
2022/07/27 01:44:08;;;;;;;1.07;0.97;;;24.90;49.00;;;;;;5068478;28;20451;-66
2022/07/27 01:46:40;;;;;;;0.90;0.90;;;24.90;48.90;;;;;;5063044;28;20987;-69
2022/07/27 01:49:06;;;;;;;1.00;1.00;;;24.90;48.90;;;;;;5065966;28;20471;-59
2022/07/27 01:51:32;;;;;;;1.00;0.93;;;24.90;49.00;;;;;;5070507;28;20431;-59
2022/07/27 01:53:58;;;;;;;0.90;0.90;;;24.90;49.00;;;;;;5073901;28;20186;-72
2022/07/27 01:56:24;;;;;;;1.10;1.00;;;24.90;49.00;;;;;;5068567;28;22611;-60
2022/07/27 01:58:51;;;;;;;1.10;1.00;;;24.90;49.00;;;;;;5066552;28;21306;-59
2022/07/27 02:01:18;;;;;;;1.20;1.10;;;24.90;49.00;;;;;;5072442;28;20212;-60
2022/07/27 02:03:44;;;;;;;0.90;0.90;;;24.90;49.00;;;;;;5066760;28;20822;-64
2022/07/27 02:06:10;;;;;;;0.90;0.90;;;24.90;48.90;;;;;;5066672;28;20911;-69
2022/07/27 02:08:36;;;;;;;1.20;1.10;;;24.90;49.00;;;;;;5066456;28;20291;-62
2022/07/27 02:13:48;;;;;;;1.30;1.20;;;24.90;49.00;;;;;;5069195;28;20713;-65
2022/07/27 02:16:15;;;;;;;1.37;0.97;;;24.90;49.00;;;;;;5061231;28;20653;-66
2022/07/27 02:18:41;;;;;;;1.20;1.10;;;24.90;49.00;;;;;;5060398;28;23221;-63
2022/07/27 02:21:07;;;;;;;1.13;1.03;;;24.90;49.00;;;;;;5060516;28;20596;-64
2022/07/27 02:23:34;;;;;;;1.10;1.00;;;24.90;49.00;;;;;;5059711;28;20195;-58
2022/07/27 02:26:00;;;;;;;1.17;1.07;;;24.90;49.00;;;;;;5073164;28;20204;-71
2022/07/27 02:28:26;;;;;;;1.30;1.20;;;24.90;49.00;;;;;;5065509;28;20437;-62
2022/07/27 02:30:52;;;;;;;1.07;0.97;;;24.90;49.00;;;;;;5069581;28;20444;-73
2022/07/27 02:33:17;;;;;;;1.10;1.00;;;24.90;49.00;;;;;;5061654;28;20181;-61
2022/07/27 02:35:43;;;;;;;1.40;1.10;;;24.90;49.00;;;;;;5065919;28;20211;-65
2022/07/27 02:38:10;;;;;;;1.30;1.20;;;24.90;49.00;;;;;;5061123;28;20193;-71
2022/07/27 02:40:37;;;;;;;1.30;1.20;;;24.90;49.00;;;;;;5066421;28;22089;-61
2022/07/27 02:43:05;;;;;;;1.30;1.20;;;24.90;49.00;;;;;;5065572;28;20456;-70
2022/07/27 02:45:30;;;;;;;1.30;1.20;;;24.90;49.00;;;;;;5064328;28;20837;-71
2022/07/27 02:47:56;;;;;;;1.40;1.30;;;24.90;49.00;;;;;;5059597;28;20539;-66
2022/07/27 02:50:22;;;;;;;1.10;1.10;;;24.90;49.00;;;;;;5060287;28;20786;-66
2022/07/27 02:52:48;;;;;;;1.50;1.40;;;24.90;49.00;;;;;;5061327;28;20186;-62
2022/07/27 02:55:14;;;;;;;1.37;1.27;;;24.90;48.90;;;;;;5068630;28;20170;-64
2022/07/27 02:57:40;;;;;;;1.37;1.27;;;24.90;49.00;;;;;;5065549;28;20425;-73
2022/07/27 03:00:10;;;;;;;1.60;1.50;;;24.90;49.00;;;;;;5064309;28;20796;-61
2022/07/27 03:02:37;;;;;;;1.40;1.30;;;24.80;48.90;;;;;;5059934;28;20193;-64
2022/07/27 03:05:04;;;;;;;1.40;1.30;;;24.90;48.90;;;;;;5060544;28;20516;-60
2022/07/27 03:07:30;;;;;;;1.33;1.23;;;24.90;49.00;;;;;;5060836;28;20643;-63
2022/07/27 03:09:55;;;;;;;1.30;1.20;;;24.90;49.00;;;;;;5068847;28;20453;-60
2022/07/27 03:12:21;;;;;;;1.30;1.20;;;24.90;49.00;;;;;;5062291;28;20200;-69
2022/07/27 03:14:47;;;;;;;1.23;1.13;;;24.90;49.00;;;;;;5060393;28;20642;-63
2022/07/27 03:17:13;;;;;;;1.60;1.50;;;24.80;48.90;;;;;;5071473;28;20284;-66
2022/07/27 03:19:38;;;;;;;1.20;1.10;;;24.80;48.90;;;;;;5059445;28;20602;-65
2022/07/27 03:22:04;;;;;;;1.20;1.10;;;24.80;48.90;;;;;;5064661;28;20177;-58
2022/07/27 03:24:30;;;;;;;1.20;1.10;;;24.90;49.00;;;;;;5064106;28;20187;-58
2022/07/27 03:26:55;;;;;;;1.20;1.10;;;24.90;49.00;;;;;;5068409;28;20559;-61
2022/07/27 03:29:21;;;;;;;1.67;1.10;;;24.90;49.00;;;;;;5058847;28;20586;-65
2022/07/27 03:31:46;;;;;;;1.43;1.33;;;24.90;49.00;;;;;;5062607;28;20723;-71
2022/07/27 03:34:12;;;;;;;1.30;1.20;;;24.80;48.90;;;;;;5063965;28;20201;-64
2022/07/27 03:36:38;;;;;;;1.13;1.03;;;24.90;49.00;;;;;;5065678;28;20532;-60
2022/07/27 03:39:03;;;;;;;1.33;1.23;;;24.90;49.00;;;;;;5059621;28;20587;-65
2022/07/27 03:41:29;;;;;;;1.30;1.20;;;24.80;48.80;;;;;;5068307;28;20208;-59
2022/07/27 03:43:55;;;;;;;1.50;1.40;;;24.80;48.90;;;;;;5060469;28;20231;-65
2022/07/27 03:46:20;;;;;;;1.30;1.20;;;24.90;49.00;;;;;;5062593;28;20185;-73
2022/07/27 03:48:46;;;;;;;1.37;1.27;;;24.80;48.90;;;;;;5062433;28;20664;-69
2022/07/27 03:51:12;;;;;;;1.40;1.30;;;24.90;49.00;;;;;;5059081;28;22204;-64
2022/07/27 03:53:38;;;;;;;1.23;1.13;;;24.80;48.90;;;;;;5057897;28;20263;-70
2022/07/27 03:56:04;;;;;;;1.40;1.30;;;24.80;48.90;;;;;;5062172;28;20429;-58
2022/07/27 03:58:30;;;;;;;1.37;1.27;;;24.80;48.90;;;;;;5065702;28;20174;-71
2022/07/27 04:00:57;;;;;;;1.30;1.20;;;24.80;48.90;;;;;;5062228;28;20487;-68
2022/07/27 04:03:22;;;;;;;1.57;1.10;;;24.80;48.90;;;;;;5061605;28;20546;-67
2022/07/27 04:05:48;;;;;;;1.07;0.97;;;24.80;48.90;;;;;;5060778;28;20437;-59
2022/07/27 04:08:13;;;;;;;1.53;1.43;;;24.80;48.90;;;;;;5058121;28;20180;-63
2022/07/27 04:10:39;;;;;;;1.50;1.40;;;24.80;48.90;;;;;;5060144;28;20258;-64
2022/07/27 04:13:05;;;;;;;1.20;1.10;;;24.90;49.00;;;;;;5068722;28;20186;-58
2022/07/27 04:15:30;;;;;;;1.30;1.20;;;24.80;48.90;;;;;;5061377;28;20199;-58
2022/07/27 04:17:57;;;;;;;1.47;1.37;;;24.80;48.90;;;;;;5066321;28;20177;-60
2022/07/27 04:20:23;;;;;;;1.40;1.30;;;24.90;48.90;;;;;;5066331;28;20251;-61
2022/07/27 04:22:49;;;;;;;1.40;1.30;;;24.90;49.00;;;;;;5071402;28;20433;-58
2022/07/27 04:25:15;;;;;;;1.37;1.27;;;24.80;48.90;;;;;;5067241;28;20456;-72
2022/07/27 04:27:41;;;;;;;1.20;1.10;;;24.80;48.90;;;;;;5069427;28;20185;-61
2022/07/27 04:30:07;;;;;;;1.30;1.20;;;24.80;48.90;;;;;;5069491;28;20541;-73
2022/07/27 04:32:33;;;;;;;1.20;1.10;;;24.80;48.90;;;;;;5063524;28;20342;-59
2022/07/27 04:34:59;;;;;;;1.20;1.10;;;24.80;48.90;;;;;;5065141;28;20434;-61
2022/07/27 04:37:25;;;;;;;1.70;1.20;;;24.90;49.00;;;;;;5064269;28;20427;-71
2022/07/27 04:39:54;;;;;;;1.03;1.03;;;24.80;48.90;;;;;;5066567;28;20201;-71
2022/07/27 04:42:22;;;;;;;1.50;1.40;;;24.80;48.90;;;;;;5063115;28;20177;-73
2022/07/27 04:44:48;;;;;;;1.20;1.10;;;24.80;48.90;;;;;;5064579;28;20429;-63
2022/07/27 04:47:14;;;;;;;1.17;1.07;;;24.80;48.90;;;;;;5059495;28;20806;-69
2022/07/27 04:49:39;;;;;;;1.43;1.33;;;24.80;48.90;;;;;;5059051;28;20351;-63
2022/07/27 04:52:05;;;;;;;1.30;1.20;;;24.80;48.80;;;;;;5058714;28;20433;-62
2022/07/27 04:54:31;;;;;;;1.30;1.20;;;24.80;48.80;;;;;;5060903;28;20189;-60
2022/07/27 04:56:57;;;;;;;1.30;1.20;;;24.80;48.90;;;;;;5060701;28;20195;-65
2022/07/27 04:59:22;;;;;;;1.50;1.40;;;24.80;48.90;;;;;;5075851;28;20430;-58
2022/07/27 05:01:48;;;;;;;1.20;1.10;;;24.80;48.90;;;;;;5064269;28;20178;-71
2022/07/27 05:04:14;;;;;;;1.40;1.30;;;24.80;48.90;;;;;;5064850;28;20184;-62
2022/07/27 05:06:40;;;;;;;1.10;1.00;;;24.80;48.90;;;;;;5066913;28;20192;-62
2022/07/27 05:09:06;;;;;;;1.27;1.17;;;24.80;48.90;;;;;;5065127;28;20703;-69
2022/07/27 05:11:31;;;;;;;1.30;1.20;;;24.80;48.90;;;;;;5068049;28;20196;-65
2022/07/27 05:13:57;;;;;;;1.30;1.20;;;24.80;48.90;;;;;;5072044;28;20196;-63
2022/07/27 05:16:23;;;;;;;1.20;1.10;;;24.80;48.90;;;;;;5067941;28;20203;-60
2022/07/27 05:18:48;;;;;;;1.23;1.13;;;24.80;48.90;;;;;;5066269;28;20195;-70
2022/07/27 05:21:14;;;;;;;1.10;1.00;;;24.90;49.00;;;;;;5064510;28;20229;-60
2022/07/27 05:23:40;;;;;;;1.40;1.30;;;24.90;49.00;;;;;;5067550;28;20177;-64
2022/07/27 05:26:06;;;;;;;1.20;1.10;;;24.90;48.90;;;;;;5070017;28;20272;-63
2022/07/27 05:28:32;;;;;;;1.20;1.10;;;24.90;48.90;;;;;;5063938;28;20180;-60
2022/07/27 05:30:58;;;;;;;3.10;1.07;;;25.00;49.10;;;;;;5072011;28;20994;-76
2022/07/27 05:33:24;;;;;;;1.13;1.03;;;25.00;49.10;;;;;;5063417;28;20169;-63
2022/07/27 05:35:50;;;;;;;1.10;1.00;;;25.00;49.10;;;;;;5066977;28;20485;-58
2022/07/27 05:38:17;;;;;;;1.13;1.03;;;25.00;49.10;;;;;;5066976;28;20192;-66
2022/07/27 05:40:44;;;;;;;0.93;0.93;;;25.00;49.00;;;;;;5064982;28;20431;-68
2022/07/27 05:43:10;;;;;;;1.17;1.00;;;25.10;49.10;;;;;;5065806;28;23047;-63
2022/07/27 05:45:36;;;;;;;1.20;1.10;;;25.10;49.10;;;;;;5075545;28;20435;-73
2022/07/27 05:48:02;;;;;;;1.13;1.03;;;25.10;49.10;;;;;;5067961;28;20952;-61
2022/07/27 05:50:28;;;;;;;1.20;1.10;;;25.10;49.10;;;;;;5068793;28;20463;-68
2022/07/27 05:52:53;;;;;;;1.00;0.90;;;25.10;49.10;;;;;;5065028;28;20207;-66
2022/07/27 05:55:20;;;;;;;1.20;1.10;;;25.10;49.10;;;;;;5064602;28;20189;-67
2022/07/27 05:57:46;;;;;;;1.17;1.07;;;25.10;49.10;;;;;;5068283;28;20303;-61
2022/07/27 06:00:12;;;;;;;1.50;1.40;;;25.10;49.10;;;;;;5072283;28;20609;-61
2022/07/27 06:02:39;;;;;;;1.20;1.10;;;25.00;49.00;;;;;;5066350;28;20184;-65
2022/07/27 06:05:05;;;;;;;1.00;0.90;;;25.10;49.10;;;;;;5067134;28;20529;-61
2022/07/27 06:10:16;;;;;;;0.87;0.83;;;25.10;49.10;;;;;;5076492;28;20212;-59
2022/07/27 06:12:43;;;;;;;6.27;1.60;;;25.10;49.10;;;;;;5063590;28;20428;-68
2022/07/27 06:15:10;;;;;;;3.37;1.37;;;25.10;48.60;;;;;;5070841;28;20426;-62
2022/07/27 06:17:37;;;;;;;2.13;1.20;;;25.10;47.80;;;;;;5072645;28;20461;-62
2022/07/27 06:20:05;;;;;;;1.83;1.20;;;25.10;47.10;;;;;;5069206;28;20505;-59
2022/07/27 06:22:32;;;;;;;7.90;1.40;;;25.10;46.40;;;;;;5072105;28;20998;-60
2022/07/27 06:24:58;;;;;;;1.20;1.10;;;25.10;45.70;;;;;;5069826;28;20527;-59
2022/07/27 06:27:24;;;;;;;1.40;1.30;;;25.20;45.30;;;;;;5067499;28;20434;-70
2022/07/27 06:29:50;;;;;;;6.30;1.37;;;25.10;45.30;;;;;;5064188;28;20456;-68
2022/07/27 06:32:15;;;;;;;1.10;1.00;;;25.10;45.40;;;;;;5067498;28;20188;-63
2022/07/27 06:34:41;;;;;;;1.53;0.93;;;25.10;45.60;;;;;;5058693;28;20176;-63
2022/07/27 06:37:07;;;;;;;1.10;1.00;;;25.10;45.80;;;;;;5070215;28;21927;-64
2022/07/27 06:39:33;;;;;;;1.13;1.03;;;25.10;46.00;;;;;;5067214;28;20242;-69
2022/07/27 06:41:59;;;;;;;1.30;1.20;;;25.10;46.10;;;;;;5069332;28;20501;-63
2022/07/27 06:44:25;;;;;;;1.67;1.13;;;25.10;46.30;;;;;;5063938;28;20430;-72
2022/07/27 06:46:50;;;;;;;1.20;1.10;;;25.10;46.30;;;;;;5069361;28;20631;-77
2022/07/27 06:49:16;;;;;;;0.93;0.90;;;25.10;46.50;;;;;;5069746;28;20539;-65
2022/07/27 06:51:41;;;;;;;1.07;0.97;;;25.10;46.50;;;;;;5065407;28;20734;-63
2022/07/27 06:54:08;;;;;;;1.00;0.90;;;25.10;46.70;;;;;;5064309;28;20579;-77
2022/07/27 06:56:34;;;;;;;1.37;1.27;;;25.10;46.70;;;;;;5071697;28;20633;-60
2022/07/27 06:58:59;;;;;;;1.00;0.90;;;25.10;46.80;;;;;;5069359;28;20187;-65
2022/07/27 07:01:25;;;;;;;1.00;0.90;;;25.10;46.90;;;;;;5067936;28;20419;-68
2022/07/27 07:03:51;;;;;;;0.97;0.90;;;25.10;47.00;;;;;;5073464;28;20731;-67
2022/07/27 07:06:16;;;;;;;1.30;1.17;;;25.10;47.00;;;;;;5065834;28;20191;-69
2022/07/27 07:08:42;;;;;;;1.10;1.00;;;25.10;47.10;;;;;;5072664;28;20216;-66
2022/07/27 07:11:10;;;;;;;1.00;0.90;;;25.10;47.20;;;;;;5068025;28;20196;-64
2022/07/27 07:13:36;;;;;;;1.30;1.20;;;25.10;47.20;;;;;;5066093;28;20230;-64
2022/07/27 07:16:03;;;;;;;1.10;1.00;;;25.10;47.20;;;;;;5068179;28;21399;-60
2022/07/27 07:18:29;;;;;;;0.90;0.90;;;25.00;47.20;;;;;;5071391;28;20435;-68
2022/07/27 07:20:55;;;;;;;3.63;1.20;;;25.10;47.30;;;;;;5066227;28;20479;-74
2022/07/27 07:23:20;;;;;;;0.80;0.80;;;25.10;47.40;;;;;;5070168;28;20426;-64
2022/07/27 07:25:46;;;;;;;1.10;1.00;;;25.10;47.50;;;;;;5061112;28;20558;-61
2022/07/27 07:28:12;;;;;;;1.00;0.90;;;25.10;47.40;;;;;;5070210;28;20192;-61
2022/07/27 07:30:38;;;;;;;0.93;0.93;;;25.10;47.40;;;;;;5072829;28;20205;-61
2022/07/27 07:33:04;;;;;;;1.20;1.10;;;25.00;47.50;;;;;;5067510;28;20185;-67
2022/07/27 07:35:31;;;;;;;1.33;0.90;;;25.00;47.50;;;;;;5070906;28;20173;-62
2022/07/27 07:37:58;;;;;;;1.00;1.00;;;25.00;47.50;;;;;;5064400;28;20492;-60
2022/07/27 07:40:24;;;;;;;1.10;0.90;;;25.00;47.60;;;;;;5060794;28;20835;-59
2022/07/27 07:43:02;;;;;;;0.87;0.87;;;25.00;47.60;;;;;;5063583;28;20481;-70
2022/07/27 07:45:30;;;;;;;1.10;1.00;;;25.00;47.60;;;;;;5068285;28;20437;-78
2022/07/27 07:47:57;;;;;;;1.03;0.93;;;25.00;47.70;;;;;;5059426;28;20588;-67
2022/07/27 07:50:23;;;;;;;1.43;0.93;;;25.00;47.60;;;;;;5070464;28;20449;-61
2022/07/27 07:52:51;;;;;;;1.10;1.00;;;25.00;47.70;;;;;;5060862;28;21043;-74
2022/07/27 07:55:25;;;;;;;0.90;0.90;;;25.00;47.70;;;;;;5060385;28;20506;-68
2022/07/27 07:57:52;;;;;;;1.07;1.00;;;25.00;47.70;;;;;;5068309;28;20438;-60
2022/07/27 08:00:19;;;;;;;1.17;1.10;;;25.00;47.70;;;;;;5066392;28;20457;-63
2022/07/27 08:02:48;;;;;;;1.10;1.00;;;25.00;47.70;;;;;;5070303;28;20417;-62
2022/07/27 08:05:14;;;;;;;1.20;1.10;;;25.00;47.80;;;;;;5072674;28;20441;-64
2022/07/27 08:07:41;;;;;;;0.93;0.90;;;25.00;47.80;;;;;;5070115;28;20429;-64
2022/07/27 08:10:09;;;;;;;1.20;0.97;;;25.00;47.80;;;;;;5061847;28;20461;-64
2022/07/27 08:12:37;;;;;;;1.07;0.97;;;25.00;47.80;;;;;;5069539;28;20515;-60
2022/07/27 08:15:05;;;;;;;0.80;0.80;;;25.00;47.80;;;;;;5069440;28;20438;-59
2022/07/27 08:17:30;;;;;;;0.90;0.90;;;25.00;47.90;;;;;;5060248;28;20430;-73
2022/07/27 08:19:56;;;;;;;1.10;1.00;;;25.00;47.80;;;;;;5069582;28;20465;-73
2022/07/27 08:22:21;;;;;;;1.00;0.90;;;25.00;47.90;;;;;;5065928;28;20263;-59
2022/07/27 08:24:48;;;;;;;0.90;0.90;;;25.00;48.00;;;;;;5068341;28;20184;-62
2022/07/27 08:27:14;;;;;;;1.00;0.90;;;25.00;48.00;;;;;;5067926;28;20216;-68
2022/07/27 08:29:40;;;;;;;1.03;0.93;;;25.00;48.00;;;;;;5065907;28;20461;-63
2022/07/27 08:32:05;;;;;;;1.40;1.30;;;25.00;48.00;;;;;;5065468;28;20176;-59
2022/07/27 08:34:31;;;;;;;1.07;0.90;;;25.00;48.00;;;;;;5062304;28;20714;-62
2022/07/27 08:36:57;;;;;;;1.20;1.10;;;25.00;48.00;;;;;;5070648;28;20176;-60
2022/07/27 08:39:24;;;;;;;1.27;0.90;;;25.00;48.00;;;;;;5066850;28;21042;-64
2022/07/27 08:41:51;;;;;;;1.30;1.20;;;25.00;48.00;;;;;;5067845;28;20176;-68
2022/07/27 08:44:21;;;;;;;1.00;0.90;;;25.00;48.00;;;;;;5068495;28;20426;-59
2022/07/27 08:46:48;;;;;;;1.13;1.07;;;25.00;48.10;;;;;;5061417;28;20433;-74
2022/07/27 08:49:14;;;;;;;1.10;1.00;;;25.00;48.00;;;;;;5070549;28;20465;-64
2022/07/27 08:51:41;;;;;;;1.10;1.00;;;25.00;48.00;;;;;;5068498;28;20784;-61
2022/07/27 08:54:07;;;;;;;1.10;1.00;;;25.00;48.00;;;;;;5071049;28;20709;-74
2022/07/27 08:56:33;;;;;;;0.97;0.97;;;25.00;48.00;;;;;;5074006;28;20567;-63
2022/07/27 08:58:59;;;;;;;1.20;1.10;;;25.00;48.00;;;;;;5080705;28;20877;-59
2022/07/27 09:01:25;;;;;;;0.80;0.80;;;25.00;48.00;;;;;;5075956;28;20181;-68
2022/07/27 09:03:51;;;;;;;0.90;0.90;;;25.00;48.00;;;;;;5067079;28;22167;-59
2022/07/27 09:06:38;;;;;;;1.20;1.10;;;25.00;48.00;;;;;;5073417;28;20418;-62
2022/07/27 09:09:04;;;;;;;1.00;1.00;;;25.00;48.00;;;;;;5070304;28;20204;-60
2022/07/27 09:11:31;;;;;;;1.00;1.00;;;25.00;48.00;;;;;;5063722;28;20494;-65
2022/07/27 09:14:02;;;;;;;1.00;0.90;;;25.00;48.00;;;;;;5064439;28;20185;-75
2022/07/27 09:16:30;;;;;;;0.90;0.90;;;25.00;48.00;;;;;;5067096;28;22081;-60
2022/07/27 09:19:04;;;;;;;1.00;1.00;;;25.00;48.00;;;;;;5066505;28;20461;-69
2022/07/27 09:21:30;;;;;;;1.00;1.00;;;25.00;48.10;;;;;;5075819;28;20473;-68
2022/07/27 09:24:05;;;;;;;0.87;0.83;;;25.00;48.10;;;;;;5069052;28;20528;-76
2022/07/27 09:26:31;;;;;;;1.10;1.00;;;25.00;48.10;;;;;;5062456;28;20441;-62
2022/07/27 09:29:05;;;;;;;1.10;1.00;;;25.00;48.00;;;;;;5062982;28;20529;-64
2022/07/27 09:31:32;;;;;;;0.80;0.80;;;25.00;48.00;;;;;;5061956;28;20438;-66
2022/07/27 09:34:00;;;;;;;1.07;1.00;;;25.00;48.00;;;;;;5065975;28;20417;-63
2022/07/27 09:36:28;;;;;;;1.13;1.03;;;25.00;48.00;;;;;;5071797;28;20429;-67
2022/07/27 09:39:05;;;;;;;1.10;1.00;;;25.00;48.10;;;;;;5070672;28;20515;-62
2022/07/27 09:41:44;;;;;;;1.20;1.00;;;25.00;48.10;;;;;;5066454;28;21192;-60
2022/07/27 09:44:10;;;;;;;0.90;0.90;;;25.00;48.00;;;;;;5078225;28;20510;-64
2022/07/27 09:46:39;;;;;;;1.00;0.90;;;25.00;48.00;;;;;;5070456;28;20436;-59
2022/07/27 09:49:24;;;;;;;0.83;0.83;;;25.00;48.00;;;;;;5072815;28;20544;-72
2022/07/27 09:51:50;;;;;;;1.20;1.10;;;25.00;48.00;;;;;;5073890;28;20429;-77
2022/07/27 09:54:16;;;;;;;1.27;1.17;;;25.00;48.10;;;;;;5072041;28;20498;-76
2022/07/27 09:56:43;;;;;;;0.90;0.90;;;25.00;48.20;;;;;;5069022;28;20428;-65
2022/07/27 09:59:17;;;;;;;1.20;1.10;;;25.00;48.00;;;;;;5068514;28;22095;-76
2022/07/27 10:01:43;;;;;;;1.00;1.00;;;25.00;48.00;;;;;;5067844;28;20421;-62
2022/07/27 10:04:09;;;;;;;1.30;1.20;;;25.00;48.80;;;;;;5066594;28;20527;-64
2022/07/27 10:06:35;;;;;;;1.73;1.50;;;25.00;48.00;;;;;;5071952;28;20231;-59
2022/07/27 10:09:01;;;;;;;1.30;1.20;;;25.00;48.10;;;;;;5070000;28;20744;-62
2022/07/27 10:11:28;;;;;;;1.07;1.07;;;25.00;48.10;;;;;;5065263;28;20514;-65
2022/07/27 10:13:55;;;;;;;1.03;1.00;;;25.00;48.10;;;;;;5063008;28;20504;-61
2022/07/27 10:16:24;;;;;;;0.97;0.97;;;25.00;48.10;;;;;;5065201;28;20432;-65
2022/07/27 10:19:08;;;;;;;1.00;1.00;;;25.00;48.20;;;;;;5069174;28;20418;-73
2022/07/27 10:21:36;;;;;;;0.90;0.90;;;25.00;48.00;;;;;;5068455;28;21060;-64
2022/07/27 10:24:08;;;;;;;1.17;1.07;;;25.00;48.10;;;;;;5073534;28;20940;-73
2022/07/27 10:26:41;;;;;;;0.93;0.93;;;25.00;48.10;;;;;;5068020;28;20438;-69
2022/07/27 10:29:13;;;;;;;1.20;1.10;;;25.00;48.10;;;;;;5068779;28;20470;-59
2022/07/27 10:31:41;;;;;;;1.17;1.07;;;25.00;48.10;;;;;;5063439;28;20429;-64
2022/07/27 10:34:09;;;;;;;1.47;1.00;;;25.00;48.10;;;;;;5069371;28;20438;-65
2022/07/27 10:36:34;;;;;;;1.30;1.20;;;25.00;48.20;;;;;;5070195;28;20429;-65
2022/07/27 10:39:03;;;;;;;1.13;1.03;;;25.00;48.20;;;;;;5075199;28;20422;-60
2022/07/27 10:41:30;;;;;;;0.97;0.97;;;25.00;48.20;;;;;;5064666;28;20668;-60
2022/07/27 10:44:17;;;;;;;1.10;1.00;;;25.00;48.10;;;;;;5067185;28;20427;-70
2022/07/27 10:47:05;;;;;;;1.33;1.23;;;25.00;48.10;;;;;;5066418;28;20461;-67
2022/07/27 10:49:33;;;;;;;1.10;1.00;;;25.00;48.20;;;;;;5061263;28;20475;-74
2022/07/27 10:52:00;;;;;;;1.00;1.00;;;25.00;48.10;;;;;;5063850;28;20441;-61
2022/07/27 10:54:34;;;;;;;1.03;1.03;;;25.00;48.20;;;;;;5075355;28;20820;-59
2022/07/27 10:57:02;;;;;;;0.90;0.90;;;25.00;48.90;;;;;;5063813;28;20440;-62
2022/07/27 10:59:43;;;;;;;1.00;1.00;;;25.00;48.20;;;;;;5061816;28;20462;-60
2022/07/27 11:02:11;;;;;;;1.10;1.00;;;25.00;48.20;;;;;;5065540;28;20425;-62
2022/07/27 11:04:48;;;;;;;1.10;1.00;;;25.00;48.20;;;;;;5063624;28;20437;-61
2022/07/27 11:07:20;;;;;;;1.30;1.20;;;25.00;48.20;;;;;;5060662;28;20444;-70
2022/07/27 11:09:48;;;;;;;1.30;1.20;;;25.00;48.30;;;;;;5071296;28;20464;-63
2022/07/27 11:12:15;;;;;;;1.10;1.10;;;25.00;48.20;;;;;;5061044;28;20434;-61
2022/07/27 11:14:53;;;;;;;1.30;1.20;;;25.00;48.20;;;;;;5068385;28;20432;-68
2022/07/27 11:17:22;;;;;;;0.97;0.97;;;25.00;48.30;;;;;;5067654;28;20516;-63
2022/07/27 11:19:54;;;;;;;1.10;1.00;;;25.00;48.20;;;;;;5067214;28;20531;-60
2022/07/27 11:22:38;;;;;;;1.00;1.00;;;25.00;48.20;;;;;;5061362;28;20677;-69
2022/07/27 11:25:05;;;;;;;0.90;0.90;;;25.00;48.20;;;;;;5069673;28;20441;-60
2022/07/27 11:27:31;;;;;;;1.13;1.03;;;25.00;48.20;;;;;;5061999;28;20587;-63
2022/07/27 11:29:57;;;;;;;1.33;1.23;;;25.00;48.30;;;;;;5068141;28;20509;-72
2022/07/27 11:32:24;;;;;;;1.10;1.00;;;25.00;48.20;;;;;;5064711;28;22581;-63
2022/07/27 11:34:50;;;;;;;0.90;0.90;;;25.00;48.90;;;;;;5066035;28;20644;-59
2022/07/27 11:37:18;;;;;;;1.20;1.10;;;25.00;48.20;;;;;;5059525;28;20788;-63
2022/07/27 11:39:46;;;;;;;1.20;1.10;;;25.00;48.30;;;;;;5069543;28;20441;-59
2022/07/27 11:42:13;;;;;;;1.10;1.00;;;25.00;48.20;;;;;;5064898;28;20425;-63
2022/07/27 11:44:44;;;;;;;1.17;1.10;;;25.00;48.20;;;;;;5063799;28;20476;-64
2022/07/27 11:47:15;;;;;;;1.10;1.00;;;25.00;48.20;;;;;;5062409;28;20887;-71
2022/07/27 11:49:41;;;;;;;1.20;1.10;;;25.00;48.20;;;;;;5066950;28;20483;-73
2022/07/27 11:52:10;;;;;;;1.23;1.13;;;25.00;48.30;;;;;;5063324;28;20453;-63
2022/07/27 11:54:38;;;;;;;1.10;1.10;;;25.00;48.20;;;;;;5068695;28;20180;-62
2022/07/27 11:57:07;;;;;;;1.20;1.10;;;25.00;48.10;;;;;;5071244;28;20445;-74
2022/07/27 11:59:35;;;;;;;1.63;1.30;;;25.00;48.20;;;;;;5069070;28;20438;-61
2022/07/27 12:02:06;;;;;;;1.00;1.00;;;25.00;48.20;;;;;;5068849;28;20446;-59
2022/07/27 12:04:33;;;;;;;1.10;1.00;;;25.00;48.10;;;;;;5063249;28;20442;-65
2022/07/27 12:07:09;;;;;;;1.20;1.10;;;25.00;48.20;;;;;;5060875;28;20467;-59
2022/07/27 12:09:42;;;;;;;1.20;1.10;;;25.00;48.20;;;;;;5064534;28;20455;-76
2022/07/27 12:12:15;;;;;;;1.00;0.97;;;25.00;48.20;;;;;;5069069;28;20441;-72
2022/07/27 12:14:47;;;;;;;1.10;1.00;;;25.00;48.20;;;;;;5062787;28;22918;-60
2022/07/27 12:17:26;;;;;;;1.17;1.07;;;25.00;48.20;;;;;;5058870;28;20433;-70
2022/07/27 12:19:55;;;;;;;1.33;1.23;;;25.00;48.10;;;;;;5060660;28;20508;-70
2022/07/27 12:22:36;;;;;;;1.20;1.10;;;25.00;48.20;;;;;;5061482;28;20521;-74
2022/07/27 12:25:28;;;;;;;1.10;1.00;;;25.00;48.20;;;;;;5065781;28;20441;-62
2022/07/27 12:28:06;;;;;;;1.10;1.03;;;25.00;48.10;;;;;;5073413;28;20472;-59
2022/07/27 12:30:45;;;;;;;1.03;0.97;;;25.00;48.20;;;;;;5063642;28;20457;-75
2022/07/27 12:33:38;;;;;;;1.37;1.27;;;25.00;48.30;;;;;;5061700;28;20452;-66
2022/07/27 12:36:06;;;;;;;1.40;1.30;;;25.00;48.20;;;;;;5062723;28;20487;-61
2022/07/27 12:38:38;;;;;;;1.00;1.00;;;25.00;48.30;;;;;;5065696;28;20505;-68
2022/07/27 12:41:03;;;;;;;1.33;1.23;;;25.00;48.20;;;;;;5066693;28;22815;-64
2022/07/27 12:43:29;;;;;;;1.20;1.10;;;25.00;48.20;;;;;;5067547;28;20478;-70
2022/07/27 12:45:55;;;;;;;1.30;1.20;;;25.00;48.20;;;;;;5064607;28;20258;-62
2022/07/27 12:48:27;;;;;;;1.33;1.23;;;25.00;48.30;;;;;;5067345;28;20188;-67
2022/07/27 12:51:01;;;;;;;1.07;1.07;;;25.00;48.20;;;;;;5060697;28;20208;-68
2022/07/27 12:53:28;;;;;;;1.20;1.10;;;25.00;48.30;;;;;;5062129;28;20421;-59
2022/07/27 12:55:55;;;;;;;1.13;1.03;;;25.00;48.20;;;;;;5081154;28;20493;-61
2022/07/27 12:58:21;;;;;;;1.53;1.20;;;25.00;48.20;;;;;;5079160;28;20840;-60